createdAt,value
2023-03-28T00:00:27.016Z,2.58
2023-03-28T00:05:50.576Z,0.65
2023-03-28T00:11:21.389Z,0.57
2023-03-28T00:16:45.903Z,0.57
2023-03-28T00:22:08.829Z,0.88
2023-03-28T00:27:31.333Z,1.10
2023-03-28T00:32:53.432Z,0.88
2023-03-28T00:38:15.855Z,1.60
2023-03-28T00:43:46.250Z,0.68
2023-03-28T00:49:21.669Z,0.95
2023-03-28T00:54:44.368Z,0.93
2023-03-28T01:00:12.655Z,2.53
2023-03-28T01:05:35.856Z,0.85
2023-03-28T01:10:58.839Z,2.28
2023-03-28T01:16:22.557Z,1.20
2023-03-28T01:22:09.841Z,2.60
2023-03-28T01:27:44.493Z,1.05
2023-03-28T01:33:19.965Z,1.20
2023-03-28T01:39:09.835Z,0.87
2023-03-28T01:44:38.948Z,2.15
2023-03-28T01:50:38.315Z,2.35
2023-03-28T01:56:11.476Z,1.15
2023-03-28T02:02:06.136Z,0.98
2023-03-28T02:07:29.174Z,0.82
2023-03-28T02:12:58.084Z,0.57
2023-03-28T02:18:24.277Z,0.85
2023-03-28T02:23:50.664Z,0.43
2023-03-28T02:29:14.157Z,0.85
2023-03-28T02:34:36.408Z,1.35
2023-03-28T02:39:58.147Z,1.55
2023-03-28T02:45:55.253Z,0.60
2023-03-28T02:51:19.902Z,0.35
2023-03-28T02:56:56.668Z,0.38
2023-03-28T03:02:21.677Z,0.38
2023-03-28T03:07:43.492Z,2.63
2023-03-28T03:13:05.340Z,1.25
2023-03-28T03:18:27.786Z,1.67
2023-03-28T03:23:50.755Z,1.35
2023-03-28T03:29:12.717Z,0.68
2023-03-28T03:34:34.550Z,0.77
2023-03-28T03:39:56.456Z,1.48
2023-03-28T03:45:18.339Z,1.60
2023-03-28T03:50:40.607Z,0.55
2023-03-28T03:56:06.615Z,0.55
2023-03-28T04:01:30.480Z,0.38
2023-03-28T04:06:52.326Z,0.57
2023-03-28T04:12:15.131Z,1.27
2023-03-28T04:17:38.080Z,0.60
2023-03-28T04:23:01.145Z,1.10
2023-03-28T04:28:28.133Z,0.73
2023-03-28T04:33:50.022Z,0.95
2023-03-28T04:39:11.941Z,1.50
2023-03-28T04:44:33.893Z,0.63
2023-03-28T04:49:55.731Z,0.50
2023-03-28T04:55:17.695Z,0.63
2023-03-28T05:00:39.797Z,0.40
2023-03-28T05:06:01.864Z,0.32
2023-03-28T05:11:24.114Z,0.75
2023-03-28T05:16:46.232Z,0.40
2023-03-28T05:22:08.077Z,0.98
2023-03-28T05:27:29.883Z,1.25
2023-03-28T05:32:52.170Z,1.17
2023-03-28T05:38:14.869Z,5.55
2023-03-28T05:43:36.648Z,0.55
2023-03-28T05:48:58.515Z,0.40
2023-03-28T05:54:20.504Z,1.58
2023-03-28T05:59:43.504Z,1.55
2023-03-28T06:05:05.651Z,0.98
2023-03-28T06:10:27.598Z,0.65
2023-03-28T06:15:49.467Z,2.80
2023-03-28T06:21:11.398Z,0.65
2023-03-28T06:26:33.253Z,2.65
2023-03-28T06:31:55.183Z,1.13
2023-03-28T06:37:17.039Z,1.35
2023-03-28T06:42:38.947Z,1.45
2023-03-28T06:48:00.961Z,0.80
2023-03-28T06:53:22.887Z,3.22
2023-03-28T06:58:44.717Z,2.70
2023-03-28T07:04:06.556Z,3.30
2023-03-28T07:09:28.600Z,2.55
2023-03-28T07:14:51.050Z,3.03
2023-03-28T07:20:12.889Z,1.02
2023-03-28T07:25:34.849Z,2.03
2023-03-28T07:30:56.787Z,3.22
2023-03-28T07:36:21.284Z,3.75
2023-03-28T07:41:43.192Z,3.85
2023-03-28T07:47:05.377Z,3.22
2023-03-28T07:52:27.336Z,2.58
2023-03-28T07:57:49.305Z,3.42
2023-03-28T08:03:12.736Z,2.33
2023-03-28T08:08:34.811Z,3.60
2023-03-28T08:13:56.598Z,3.60
2023-03-28T08:19:18.531Z,2.90
2023-03-28T08:24:40.716Z,2.88
2023-03-28T08:30:02.843Z,1.88
2023-03-28T08:35:25.213Z,6.40
2023-03-28T08:40:58.865Z,2.20
2023-03-28T08:46:22.917Z,5.95
2023-03-28T08:51:49.212Z,5.22
2023-03-28T08:57:19.821Z,2.60
2023-03-28T09:02:43.302Z,2.97
2023-03-28T09:08:35.671Z,4.97
2023-03-28T09:14:17.686Z,4.93
2023-03-28T09:19:49.293Z,6.35
2023-03-28T09:25:16.980Z,3.33
2023-03-28T09:30:44.768Z,4.03
2023-03-28T09:36:21.289Z,2.95
2023-03-28T09:42:12.417Z,2.28
2023-03-28T09:47:34.544Z,3.78
2023-03-28T09:52:58.510Z,6.75
2023-03-28T09:58:20.623Z,2.53
2023-03-28T10:03:53.248Z,7.03
2023-03-28T10:09:20.872Z,6.32
2023-03-28T10:14:47.526Z,4.88
2023-03-28T10:20:21.806Z,5.95
2023-03-28T10:25:46.161Z,6.97
2023-03-28T10:31:20.382Z,6.45
2023-03-28T10:36:43.797Z,4.35
2023-03-28T10:42:05.620Z,9.20
2023-03-28T10:47:28.292Z,3.97
2023-03-28T10:52:54.650Z,7.95
2023-03-28T10:58:28.314Z,5.93
2023-03-28T11:04:11.362Z,9.35
2023-03-28T11:09:57.541Z,5.10
2023-03-28T11:15:48.679Z,4.93
2023-03-28T11:21:41.810Z,6.60
2023-03-28T11:27:16.041Z,3.08
2023-03-28T11:32:46.062Z,2.78
2023-03-28T11:38:22.554Z,10.32
2023-03-28T11:43:51.822Z,2.22
2023-03-28T11:49:22.873Z,5.90
2023-03-28T11:55:14.415Z,5.40
2023-03-28T12:00:44.405Z,3.55
2023-03-28T12:06:12.770Z,2.63
2023-03-28T12:11:42.559Z,4.03
2023-03-28T12:17:16.473Z,5.82
2023-03-28T12:22:44.913Z,5.22
2023-03-28T12:28:22.601Z,5.78
2023-03-28T12:34:09.227Z,26.42
2023-03-28T12:45:06.917Z,10.23
2023-03-28T12:50:58.871Z,10.15
2023-03-28T12:56:22.040Z,9.35
2023-03-28T13:01:49.590Z,10.40
2023-03-28T13:07:48.648Z,10.23
2023-03-28T13:13:25.738Z,6.00
2023-03-28T13:18:49.664Z,11.20
2023-03-28T13:24:41.107Z,5.50
2023-03-28T13:30:14.913Z,4.40
2023-03-28T13:35:49.348Z,7.35
2023-03-28T13:41:33.775Z,6.60
2023-03-28T13:46:57.186Z,5.32
2023-03-28T13:52:22.882Z,8.73
2023-03-28T14:03:15.472Z,7.28
2023-03-28T14:08:37.449Z,2.58
2023-03-28T14:14:17.502Z,6.60
2023-03-28T14:19:46.725Z,2.67
2023-03-28T14:25:13.746Z,3.70
2023-03-28T14:30:41.319Z,2.90
2023-03-28T14:36:05.981Z,9.10
2023-03-28T14:41:30.372Z,8.07
2023-03-28T14:46:56.923Z,8.02
2023-03-28T14:52:28.257Z,8.73
2023-03-28T14:57:53.698Z,3.47
2023-03-28T15:08:45.045Z,5.47
2023-03-28T15:14:29.415Z,6.03
2023-03-28T15:19:58.832Z,4.72
2023-03-28T15:25:22.158Z,10.98
2023-03-28T15:30:45.790Z,7.13
2023-03-28T15:36:33.447Z,4.78
2023-03-28T15:42:00.935Z,5.43
2023-03-28T15:47:26.173Z,4.45
2023-03-28T15:52:48.006Z,7.35
2023-03-28T15:58:19.371Z,3.05
2023-03-28T16:03:41.426Z,5.82
2023-03-28T16:09:23.954Z,7.57
2023-03-28T16:14:49.074Z,6.78
2023-03-28T16:20:22.765Z,6.13
2023-03-28T16:25:44.706Z,4.53
2023-03-28T16:31:06.725Z,7.72
2023-03-28T16:36:28.628Z,8.50
2023-03-28T16:41:50.427Z,9.65
2023-03-28T16:47:12.239Z,8.68
2023-03-28T16:52:38.998Z,5.95
2023-03-28T16:58:01.275Z,5.93
2023-03-28T17:03:23.749Z,10.82
2023-03-28T17:08:46.156Z,6.95
2023-03-28T17:14:07.972Z,6.68
2023-03-28T17:19:29.837Z,6.32
2023-03-28T17:24:51.880Z,8.10
2023-03-28T17:30:14.016Z,8.55
2023-03-28T17:35:36.175Z,6.47
2023-03-28T17:40:58.025Z,7.97
2023-03-28T17:46:20.079Z,12.10
2023-03-28T17:51:41.969Z,7.57
2023-03-28T17:57:05.197Z,11.50
2023-03-28T18:02:27.526Z,19.55
2023-03-28T18:07:49.491Z,7.60
2023-03-28T18:13:11.654Z,3.67
2023-03-28T18:18:34.195Z,8.65
2023-03-28T18:23:56.258Z,6.35
2023-03-28T18:29:18.304Z,9.98
2023-03-28T18:34:41.669Z,9.70
2023-03-28T18:40:07.525Z,10.25
2023-03-28T18:45:29.393Z,15.75
2023-03-28T18:50:51.272Z,9.75
2023-03-28T18:56:13.875Z,8.70
2023-03-28T19:01:36.039Z,8.13
2023-03-28T19:06:57.858Z,8.93
2023-03-28T19:12:19.643Z,10.68
2023-03-28T19:17:41.846Z,5.13
2023-03-28T19:23:03.890Z,5.07
2023-03-28T19:28:25.850Z,9.10
2023-03-28T19:33:47.913Z,11.80
2023-03-28T19:39:09.863Z,7.45
2023-03-28T19:44:33.464Z,12.88
2023-03-28T19:49:55.353Z,8.95
2023-03-28T19:55:17.565Z,10.82
2023-03-28T20:00:39.976Z,9.23
2023-03-28T20:06:08.150Z,8.23
2023-03-28T20:11:30.088Z,13.85
2023-03-28T20:16:51.968Z,13.52
2023-03-28T20:22:14.550Z,10.15
2023-03-28T20:27:37.478Z,10.45
2023-03-28T20:32:59.714Z,7.75
2023-03-28T20:38:22.060Z,8.07
2023-03-28T20:43:47.413Z,10.10
2023-03-28T20:49:09.487Z,12.90
2023-03-28T20:54:31.252Z,7.55
2023-03-28T20:59:55.503Z,8.85
2023-03-28T21:05:18.616Z,13.10
2023-03-28T21:10:40.907Z,11.73
2023-03-28T21:16:02.749Z,2.92
2023-03-28T21:21:24.852Z,8.63
2023-03-28T21:26:47.185Z,7.25
2023-03-28T21:32:09.621Z,14.18
2023-03-28T21:37:32.144Z,10.98
2023-03-28T21:42:54.249Z,11.30
2023-03-28T21:48:16.906Z,8.00
2023-03-28T21:53:39.779Z,2.88
2023-03-28T21:59:01.675Z,5.43
2023-03-28T22:04:23.574Z,6.10
2023-03-28T22:09:45.486Z,7.50
2023-03-28T22:15:08.060Z,3.40
2023-03-28T22:20:29.959Z,8.45
2023-03-28T22:25:53.305Z,6.30
2023-03-28T22:31:17.179Z,6.30
2023-03-28T22:36:39.045Z,5.68
2023-03-28T22:42:00.885Z,2.75
2023-03-28T22:47:30.245Z,2.83
2023-03-28T22:52:53.174Z,3.20
2023-03-28T22:58:15.507Z,4.10
2023-03-28T23:03:37.718Z,1.23
2023-03-28T23:09:00.841Z,3.40
2023-03-28T23:14:22.680Z,3.38
2023-03-28T23:19:45.710Z,2.95
2023-03-28T23:25:09.341Z,1.77
2023-03-28T23:30:31.431Z,1.00
2023-03-28T23:35:53.601Z,1.77
2023-03-28T23:41:15.460Z,2.08
2023-03-28T23:46:37.204Z,1.48
2023-03-28T23:51:58.963Z,1.45
2023-03-28T23:57:20.866Z,0.95
